sensor_id;sensor_type;location;lat;lon;timestamp;P1;durP1;ratioP1;P2;durP2;ratioP2
22314;SDS011;11325;55.686;37.566;2024-03-08T00:02:01;6.22;;;2.58;;
22314;SDS011;11325;55.686;37.566;2024-03-08T00:04:30;5.08;;;3.02;;
22314;SDS011;11325;55.686;37.566;2024-03-08T00:06:58;7.35;;;3.05;;
22314;SDS011;11325;55.686;37.566;2024-03-08T00:09:27;6.22;;;2.77;;
22314;SDS011;11325;55.686;37.566;2024-03-08T00:11:55;4.28;;;2.77;;
22314;SDS011;11325;55.686;37.566;2024-03-08T00:14:23;4.58;;;2.70;;
22314;SDS011;11325;55.686;37.566;2024-03-08T00:16:51;5.10;;;3.37;;
22314;SDS011;11325;55.686;37.566;2024-03-08T00:19:21;12.68;;;3.08;;
22314;SDS011;11325;55.686;37.566;2024-03-08T00:21:50;5.08;;;2.60;;
22314;SDS011;11325;55.686;37.566;2024-03-08T00:24:18;4.45;;;2.60;;
22314;SDS011;11325;55.686;37.566;2024-03-08T00:26:48;10.63;;;3.37;;
22314;SDS011;11325;55.686;37.566;2024-03-08T00:29:16;4.45;;;2.67;;
22314;SDS011;11325;55.686;37.566;2024-03-08T00:31:44;5.78;;;2.65;;
22314;SDS011;11325;55.686;37.566;2024-03-08T00:34:12;5.05;;;3.05;;
22314;SDS011;11325;55.686;37.566;2024-03-08T00:36:40;5.90;;;2.70;;
22314;SDS011;11325;55.686;37.566;2024-03-08T00:39:09;4.92;;;2.45;;
22314;SDS011;11325;55.686;37.566;2024-03-08T00:41:39;3.85;;;2.75;;
22314;SDS011;11325;55.686;37.566;2024-03-08T00:44:07;4.20;;;2.47;;
22314;SDS011;11325;55.686;37.566;2024-03-08T00:46:36;4.90;;;2.50;;
22314;SDS011;11325;55.686;37.566;2024-03-08T00:49:05;5.95;;;2.37;;
22314;SDS011;11325;55.686;37.566;2024-03-08T00:51:33;4.10;;;2.25;;
22314;SDS011;11325;55.686;37.566;2024-03-08T00:54:01;3.37;;;2.47;;
22314;SDS011;11325;55.686;37.566;2024-03-08T00:56:30;5.78;;;2.35;;
22314;SDS011;11325;55.686;37.566;2024-03-08T00:58:58;4.10;;;2.65;;
22314;SDS011;11325;55.686;37.566;2024-03-08T01:01:28;4.22;;;2.55;;
22314;SDS011;11325;55.686;37.566;2024-03-08T01:03:56;4.35;;;2.37;;
22314;SDS011;11325;55.686;37.566;2024-03-08T01:06:24;2.77;;;2.20;;
22314;SDS011;11325;55.686;37.566;2024-03-08T01:08:53;4.47;;;2.20;;
22314;SDS011;11325;55.686;37.566;2024-03-08T01:11:21;5.55;;;3.08;;
22314;SDS011;11325;55.686;37.566;2024-03-08T01:13:49;5.55;;;2.25;;
22314;SDS011;11325;55.686;37.566;2024-03-08T01:16:17;6.65;;;2.75;;
22314;SDS011;11325;55.686;37.566;2024-03-08T01:18:47;4.47;;;2.55;;
22314;SDS011;11325;55.686;37.566;2024-03-08T01:21:15;4.33;;;2.47;;
22314;SDS011;11325;55.686;37.566;2024-03-08T01:23:44;3.72;;;2.22;;
22314;SDS011;11325;55.686;37.566;2024-03-08T01:26:12;3.72;;;2.52;;
22314;SDS011;11325;55.686;37.566;2024-03-08T01:28:42;6.92;;;2.67;;
22314;SDS011;11325;55.686;37.566;2024-03-08T01:31:10;4.83;;;2.72;;
22314;SDS011;11325;55.686;37.566;2024-03-08T01:33:39;5.03;;;2.58;;
22314;SDS011;11325;55.686;37.566;2024-03-08T01:36:07;4.92;;;2.62;;
22314;SDS011;11325;55.686;37.566;2024-03-08T01:38:35;5.85;;;2.70;;
22314;SDS011;11325;55.686;37.566;2024-03-08T01:41:04;5.62;;;2.72;;
22314;SDS011;11325;55.686;37.566;2024-03-08T01:43:32;7.03;;;2.60;;
22314;SDS011;11325;55.686;37.566;2024-03-08T01:46:00;3.95;;;2.42;;
22314;SDS011;11325;55.686;37.566;2024-03-08T01:48:30;9.68;;;3.30;;
22314;SDS011;11325;55.686;37.566;2024-03-08T01:50:58;5.03;;;2.77;;
22314;SDS011;11325;55.686;37.566;2024-03-08T01:53:28;7.53;;;2.83;;
22314;SDS011;11325;55.686;37.566;2024-03-08T01:55:57;6.37;;;2.52;;
22314;SDS011;11325;55.686;37.566;2024-03-08T01:58:26;4.35;;;2.45;;
22314;SDS011;11325;55.686;37.566;2024-03-08T02:00:56;4.95;;;2.90;;
22314;SDS011;11325;55.686;37.566;2024-03-08T02:03:26;5.83;;;2.80;;
22314;SDS011;11325;55.686;37.566;2024-03-08T02:05:55;6.30;;;3.00;;
22314;SDS011;11325;55.686;37.566;2024-03-08T02:08:23;5.58;;;3.08;;
22314;SDS011;11325;55.686;37.566;2024-03-08T02:10:51;4.53;;;3.20;;
22314;SDS011;11325;55.686;37.566;2024-03-08T02:13:19;7.00;;;3.20;;
22314;SDS011;11325;55.686;37.566;2024-03-08T02:18:22;8.03;;;3.65;;
22314;SDS011;11325;55.686;37.566;2024-03-08T02:20:51;5.70;;;3.17;;
22314;SDS011;11325;55.686;37.566;2024-03-08T02:23:19;6.35;;;2.80;;
22314;SDS011;11325;55.686;37.566;2024-03-08T02:25:47;6.65;;;2.50;;
22314;SDS011;11325;55.686;37.566;2024-03-08T02:28:16;6.42;;;3.17;;
22314;SDS011;11325;55.686;37.566;2024-03-08T02:30:46;6.45;;;2.65;;
22314;SDS011;11325;55.686;37.566;2024-03-08T02:33:15;9.98;;;2.95;;
22314;SDS011;11325;55.686;37.566;2024-03-08T02:35:47;8.15;;;2.65;;
22314;SDS011;11325;55.686;37.566;2024-03-08T02:38:16;5.15;;;2.75;;
22314;SDS011;11325;55.686;37.566;2024-03-08T02:40:46;7.15;;;2.95;;
22314;SDS011;11325;55.686;37.566;2024-03-08T02:43:15;6.30;;;2.83;;
22314;SDS011;11325;55.686;37.566;2024-03-08T02:45:44;6.12;;;3.02;;
22314;SDS011;11325;55.686;37.566;2024-03-08T02:48:14;4.28;;;2.62;;
22314;SDS011;11325;55.686;37.566;2024-03-08T02:50:43;6.47;;;3.02;;
22314;SDS011;11325;55.686;37.566;2024-03-08T02:53:12;7.05;;;3.25;;
22314;SDS011;11325;55.686;37.566;2024-03-08T02:55:40;4.58;;;2.58;;
22314;SDS011;11325;55.686;37.566;2024-03-08T02:58:09;4.55;;;2.83;;
22314;SDS011;11325;55.686;37.566;2024-03-08T03:00:41;4.95;;;2.60;;
22314;SDS011;11325;55.686;37.566;2024-03-08T03:03:10;4.33;;;2.90;;
22314;SDS011;11325;55.686;37.566;2024-03-08T03:05:38;5.92;;;2.95;;
22314;SDS011;11325;55.686;37.566;2024-03-08T03:08:08;9.15;;;2.87;;
22314;SDS011;11325;55.686;37.566;2024-03-08T03:10:37;5.83;;;2.77;;
22314;SDS011;11325;55.686;37.566;2024-03-08T03:13:05;7.25;;;3.30;;
22314;SDS011;11325;55.686;37.566;2024-03-08T03:15:33;4.40;;;2.87;;
22314;SDS011;11325;55.686;37.566;2024-03-08T03:18:01;6.17;;;3.17;;
22314;SDS011;11325;55.686;37.566;2024-03-08T03:20:30;4.58;;;3.02;;
22314;SDS011;11325;55.686;37.566;2024-03-08T03:23:02;3.50;;;2.40;;
22314;SDS011;11325;55.686;37.566;2024-03-08T03:25:31;8.75;;;3.40;;
22314;SDS011;11325;55.686;37.566;2024-03-08T03:28:02;4.45;;;2.62;;
22314;SDS011;11325;55.686;37.566;2024-03-08T03:30:31;7.30;;;3.80;;
22314;SDS011;11325;55.686;37.566;2024-03-08T03:33:02;6.45;;;3.33;;
22314;SDS011;11325;55.686;37.566;2024-03-08T03:35:32;5.12;;;3.00;;
22314;SDS011;11325;55.686;37.566;2024-03-08T03:38:01;7.37;;;3.58;;
22314;SDS011;11325;55.686;37.566;2024-03-08T03:40:40;9.45;;;3.40;;
22314;SDS011;11325;55.686;37.566;2024-03-08T03:43:05;6.37;;;3.25;;
22314;SDS011;11325;55.686;37.566;2024-03-08T03:45:33;6.65;;;3.08;;
22314;SDS011;11325;55.686;37.566;2024-03-08T03:48:06;5.97;;;3.35;;
22314;SDS011;11325;55.686;37.566;2024-03-08T03:50:36;5.72;;;3.27;;
22314;SDS011;11325;55.686;37.566;2024-03-08T03:53:05;6.20;;;3.20;;
22314;SDS011;11325;55.686;37.566;2024-03-08T03:55:36;6.25;;;4.20;;
22314;SDS011;11325;55.686;37.566;2024-03-08T03:58:05;6.10;;;3.80;;
22314;SDS011;11325;55.686;37.566;2024-03-08T04:00:34;4.72;;;3.22;;
22314;SDS011;11325;55.686;37.566;2024-03-08T04:03:02;8.80;;;4.28;;
22314;SDS011;11325;55.686;37.566;2024-03-08T04:05:30;9.28;;;3.85;;
22314;SDS011;11325;55.686;37.566;2024-03-08T04:07:58;5.62;;;3.35;;
22314;SDS011;11325;55.686;37.566;2024-03-08T04:10:27;7.17;;;3.50;;
22314;SDS011;11325;55.686;37.566;2024-03-08T04:12:55;6.22;;;3.42;;
22314;SDS011;11325;55.686;37.566;2024-03-08T04:15:24;7.25;;;3.87;;
22314;SDS011;11325;55.686;37.566;2024-03-08T04:17:52;6.25;;;3.50;;
22314;SDS011;11325;55.686;37.566;2024-03-08T04:20:20;6.50;;;3.30;;
22314;SDS011;11325;55.686;37.566;2024-03-08T04:22:49;6.62;;;3.77;;
22314;SDS011;11325;55.686;37.566;2024-03-08T04:25:17;8.73;;;3.50;;
22314;SDS011;11325;55.686;37.566;2024-03-08T04:27:45;5.15;;;3.10;;
22314;SDS011;11325;55.686;37.566;2024-03-08T04:30:15;6.33;;;3.45;;
22314;SDS011;11325;55.686;37.566;2024-03-08T04:32:44;5.97;;;3.10;;
22314;SDS011;11325;55.686;37.566;2024-03-08T04:35:12;8.60;;;3.55;;
22314;SDS011;11325;55.686;37.566;2024-03-08T04:37:40;7.55;;;3.90;;
22314;SDS011;11325;55.686;37.566;2024-03-08T04:40:08;5.05;;;3.40;;
22314;SDS011;11325;55.686;37.566;2024-03-08T04:42:37;7.53;;;3.45;;
22314;SDS011;11325;55.686;37.566;2024-03-08T04:45:06;7.50;;;3.85;;
22314;SDS011;11325;55.686;37.566;2024-03-08T04:47:41;6.28;;;3.37;;
22314;SDS011;11325;55.686;37.566;2024-03-08T04:50:09;4.25;;;2.80;;
22314;SDS011;11325;55.686;37.566;2024-03-08T04:52:38;5.87;;;3.33;;
22314;SDS011;11325;55.686;37.566;2024-03-08T04:55:06;8.30;;;3.75;;
22314;SDS011;11325;55.686;37.566;2024-03-08T04:57:35;4.58;;;3.08;;
22314;SDS011;11325;55.686;37.566;2024-03-08T05:00:03;5.20;;;3.33;;
22314;SDS011;11325;55.686;37.566;2024-03-08T05:02:33;5.80;;;3.45;;
22314;SDS011;11325;55.686;37.566;2024-03-08T05:05:01;6.40;;;3.00;;
22314;SDS011;11325;55.686;37.566;2024-03-08T05:07:29;8.85;;;4.37;;
22314;SDS011;11325;55.686;37.566;2024-03-08T05:09:58;8.60;;;3.77;;
22314;SDS011;11325;55.686;37.566;2024-03-08T05:12:25;6.92;;;3.50;;
22314;SDS011;11325;55.686;37.566;2024-03-08T05:14:54;5.90;;;3.25;;
22314;SDS011;11325;55.686;37.566;2024-03-08T05:17:22;11.53;;;4.22;;
22314;SDS011;11325;55.686;37.566;2024-03-08T05:19:51;5.70;;;3.77;;
22314;SDS011;11325;55.686;37.566;2024-03-08T05:22:19;7.65;;;4.35;;
22314;SDS011;11325;55.686;37.566;2024-03-08T05:24:47;6.17;;;3.58;;
22314;SDS011;11325;55.686;37.566;2024-03-08T05:27:15;7.72;;;3.77;;
22314;SDS011;11325;55.686;37.566;2024-03-08T05:29:43;8.43;;;3.58;;
22314;SDS011;11325;55.686;37.566;2024-03-08T05:32:12;6.03;;;3.50;;
22314;SDS011;11325;55.686;37.566;2024-03-08T05:34:42;10.95;;;3.90;;
22314;SDS011;11325;55.686;37.566;2024-03-08T05:37:11;8.93;;;3.65;;
22314;SDS011;11325;55.686;37.566;2024-03-08T05:39:40;5.72;;;3.35;;
22314;SDS011;11325;55.686;37.566;2024-03-08T05:42:08;6.30;;;3.45;;
22314;SDS011;11325;55.686;37.566;2024-03-08T05:44:36;9.50;;;3.70;;
22314;SDS011;11325;55.686;37.566;2024-03-08T05:47:05;8.25;;;3.92;;
22314;SDS011;11325;55.686;37.566;2024-03-08T05:49:33;10.18;;;3.92;;
22314;SDS011;11325;55.686;37.566;2024-03-08T05:52:02;5.83;;;3.25;;
22314;SDS011;11325;55.686;37.566;2024-03-08T05:54:30;5.40;;;3.42;;
22314;SDS011;11325;55.686;37.566;2024-03-08T05:57:00;16.65;;;4.67;;
22314;SDS011;11325;55.686;37.566;2024-03-08T05:59:30;6.08;;;3.83;;
22314;SDS011;11325;55.686;37.566;2024-03-08T06:01:58;8.80;;;4.33;;
22314;SDS011;11325;55.686;37.566;2024-03-08T06:04:26;7.60;;;4.20;;
22314;SDS011;11325;55.686;37.566;2024-03-08T06:06:54;8.35;;;4.22;;
22314;SDS011;11325;55.686;37.566;2024-03-08T06:09:24;8.20;;;4.15;;
22314;SDS011;11325;55.686;37.566;2024-03-08T06:11:52;7.70;;;4.05;;
22314;SDS011;11325;55.686;37.566;2024-03-08T06:14:21;6.85;;;3.95;;
22314;SDS011;11325;55.686;37.566;2024-03-08T06:16:50;7.97;;;4.03;;
22314;SDS011;11325;55.686;37.566;2024-03-08T06:19:18;8.98;;;4.08;;
22314;SDS011;11325;55.686;37.566;2024-03-08T06:21:47;7.72;;;3.98;;
22314;SDS011;11325;55.686;37.566;2024-03-08T06:24:15;7.08;;;3.77;;
22314;SDS011;11325;55.686;37.566;2024-03-08T06:26:43;8.48;;;4.35;;
22314;SDS011;11325;55.686;37.566;2024-03-08T06:29:11;6.78;;;3.65;;
22314;SDS011;11325;55.686;37.566;2024-03-08T06:31:39;9.23;;;4.08;;
22314;SDS011;11325;55.686;37.566;2024-03-08T06:34:08;6.87;;;3.95;;
22314;SDS011;11325;55.686;37.566;2024-03-08T06:36:36;7.37;;;3.90;;
22314;SDS011;11325;55.686;37.566;2024-03-08T06:39:04;7.20;;;3.75;;
22314;SDS011;11325;55.686;37.566;2024-03-08T06:41:39;8.35;;;3.98;;
22314;SDS011;11325;55.686;37.566;2024-03-08T06:44:03;7.62;;;3.58;;
22314;SDS011;11325;55.686;37.566;2024-03-08T06:46:32;6.92;;;3.77;;
22314;SDS011;11325;55.686;37.566;2024-03-08T06:49:01;6.42;;;3.67;;
22314;SDS011;11325;55.686;37.566;2024-03-08T06:51:30;6.80;;;3.90;;
22314;SDS011;11325;55.686;37.566;2024-03-08T06:53:59;7.58;;;3.62;;
22314;SDS011;11325;55.686;37.566;2024-03-08T06:56:27;9.05;;;4.50;;
22314;SDS011;11325;55.686;37.566;2024-03-08T06:58:56;10.08;;;4.55;;
22314;SDS011;11325;55.686;37.566;2024-03-08T07:01:25;9.13;;;4.15;;
22314;SDS011;11325;55.686;37.566;2024-03-08T07:03:53;5.17;;;3.20;;
22314;SDS011;11325;55.686;37.566;2024-03-08T07:06:23;10.72;;;4.85;;
22314;SDS011;11325;55.686;37.566;2024-03-08T07:08:52;8.38;;;4.90;;
22314;SDS011;11325;55.686;37.566;2024-03-08T07:11:20;7.22;;;4.05;;
22314;SDS011;11325;55.686;37.566;2024-03-08T07:13:48;7.65;;;4.00;;
22314;SDS011;11325;55.686;37.566;2024-03-08T07:16:17;7.45;;;4.10;;
22314;SDS011;11325;55.686;37.566;2024-03-08T07:18:45;5.92;;;3.65;;
22314;SDS011;11325;55.686;37.566;2024-03-08T07:21:13;6.35;;;3.72;;
22314;SDS011;11325;55.686;37.566;2024-03-08T07:23:41;7.53;;;4.28;;
22314;SDS011;11325;55.686;37.566;2024-03-08T07:26:16;7.70;;;3.70;;
22314;SDS011;11325;55.686;37.566;2024-03-08T07:28:46;8.68;;;4.67;;
22314;SDS011;11325;55.686;37.566;2024-03-08T07:31:14;8.98;;;4.12;;
22314;SDS011;11325;55.686;37.566;2024-03-08T07:33:44;14.18;;;4.72;;
22314;SDS011;11325;55.686;37.566;2024-03-08T07:36:12;8.78;;;4.53;;
22314;SDS011;11325;55.686;37.566;2024-03-08T07:38:42;9.23;;;4.45;;
22314;SDS011;11325;55.686;37.566;2024-03-08T07:41:10;11.93;;;4.37;;
22314;SDS011;11325;55.686;37.566;2024-03-08T07:43:40;8.15;;;4.15;;
22314;SDS011;11325;55.686;37.566;2024-03-08T07:46:09;11.08;;;4.05;;
22314;SDS011;11325;55.686;37.566;2024-03-08T07:48:37;7.15;;;3.90;;
22314;SDS011;11325;55.686;37.566;2024-03-08T07:51:07;9.28;;;4.75;;
22314;SDS011;11325;55.686;37.566;2024-03-08T07:53:36;9.13;;;4.95;;
22314;SDS011;11325;55.686;37.566;2024-03-08T07:56:05;7.78;;;4.35;;
22314;SDS011;11325;55.686;37.566;2024-03-08T07:58:33;16.17;;;6.85;;
22314;SDS011;11325;55.686;37.566;2024-03-08T08:01:01;8.03;;;4.17;;
22314;SDS011;11325;55.686;37.566;2024-03-08T08:03:29;11.73;;;5.05;;
22314;SDS011;11325;55.686;37.566;2024-03-08T08:05:58;10.70;;;4.75;;
22314;SDS011;11325;55.686;37.566;2024-03-08T08:08:26;10.48;;;5.00;;
22314;SDS011;11325;55.686;37.566;2024-03-08T08:10:55;9.00;;;5.03;;
22314;SDS011;11325;55.686;37.566;2024-03-08T08:13:23;12.53;;;4.83;;
22314;SDS011;11325;55.686;37.566;2024-03-08T08:15:52;8.73;;;4.58;;
22314;SDS011;11325;55.686;37.566;2024-03-08T08:18:20;10.43;;;4.87;;
22314;SDS011;11325;55.686;37.566;2024-03-08T08:20:49;9.25;;;4.87;;
22314;SDS011;11325;55.686;37.566;2024-03-08T08:23:19;10.63;;;4.55;;
22314;SDS011;11325;55.686;37.566;2024-03-08T08:25:47;12.20;;;4.87;;
22314;SDS011;11325;55.686;37.566;2024-03-08T08:28:17;12.23;;;4.87;;
22314;SDS011;11325;55.686;37.566;2024-03-08T08:30:45;9.25;;;5.03;;
22314;SDS011;11325;55.686;37.566;2024-03-08T08:33:13;11.25;;;4.92;;
22314;SDS011;11325;55.686;37.566;2024-03-08T08:35:42;8.85;;;4.65;;
22314;SDS011;11325;55.686;37.566;2024-03-08T08:38:10;14.58;;;5.40;;
22314;SDS011;11325;55.686;37.566;2024-03-08T08:40:38;16.57;;;5.00;;
22314;SDS011;11325;55.686;37.566;2024-03-08T08:43:06;8.30;;;4.50;;
22314;SDS011;11325;55.686;37.566;2024-03-08T08:45:35;9.35;;;5.03;;
22314;SDS011;11325;55.686;37.566;2024-03-08T08:48:03;9.73;;;5.25;;
22314;SDS011;11325;55.686;37.566;2024-03-08T08:50:32;11.75;;;5.50;;
22314;SDS011;11325;55.686;37.566;2024-03-08T08:53:01;10.98;;;5.53;;
22314;SDS011;11325;55.686;37.566;2024-03-08T08:55:30;13.72;;;5.62;;
22314;SDS011;11325;55.686;37.566;2024-03-08T08:57:58;11.12;;;5.85;;
22314;SDS011;11325;55.686;37.566;2024-03-08T09:00:27;12.65;;;5.90;;
22314;SDS011;11325;55.686;37.566;2024-03-08T09:02:56;9.83;;;5.15;;
22314;SDS011;11325;55.686;37.566;2024-03-08T09:05:25;12.60;;;5.05;;
22314;SDS011;11325;55.686;37.566;2024-03-08T09:07:53;12.58;;;6.33;;
22314;SDS011;11325;55.686;37.566;2024-03-08T09:10:22;9.45;;;5.33;;
22314;SDS011;11325;55.686;37.566;2024-03-08T09:12:50;11.48;;;5.67;;
22314;SDS011;11325;55.686;37.566;2024-03-08T09:15:19;11.55;;;5.65;;
22314;SDS011;11325;55.686;37.566;2024-03-08T09:17:48;11.00;;;5.20;;
22314;SDS011;11325;55.686;37.566;2024-03-08T09:20:16;13.90;;;5.75;;
22314;SDS011;11325;55.686;37.566;2024-03-08T09:22:45;10.35;;;5.37;;
22314;SDS011;11325;55.686;37.566;2024-03-08T09:25:13;16.75;;;5.80;;
22314;SDS011;11325;55.686;37.566;2024-03-08T09:27:41;10.60;;;6.22;;
22314;SDS011;11325;55.686;37.566;2024-03-08T09:30:10;12.95;;;5.78;;
22314;SDS011;11325;55.686;37.566;2024-03-08T09:32:39;13.15;;;5.58;;
22314;SDS011;11325;55.686;37.566;2024-03-08T09:35:09;12.60;;;6.37;;
22314;SDS011;11325;55.686;37.566;2024-03-08T09:37:38;14.35;;;6.03;;
22314;SDS011;11325;55.686;37.566;2024-03-08T09:40:06;13.78;;;5.90;;
22314;SDS011;11325;55.686;37.566;2024-03-08T09:42:41;11.70;;;6.45;;
22314;SDS011;11325;55.686;37.566;2024-03-08T09:45:09;10.75;;;5.75;;
22314;SDS011;11325;55.686;37.566;2024-03-08T09:47:44;12.23;;;6.20;;
22314;SDS011;11325;55.686;37.566;2024-03-08T09:50:14;11.68;;;5.80;;
22314;SDS011;11325;55.686;37.566;2024-03-08T09:52:48;8.45;;;5.30;;
22314;SDS011;11325;55.686;37.566;2024-03-08T09:55:16;12.23;;;5.42;;
22314;SDS011;11325;55.686;37.566;2024-03-08T09:57:49;9.83;;;5.40;;
22314;SDS011;11325;55.686;37.566;2024-03-08T10:00:36;12.18;;;6.35;;
22314;SDS011;11325;55.686;37.566;2024-03-08T10:03:04;12.37;;;6.78;;
22314;SDS011;11325;55.686;37.566;2024-03-08T10:05:33;16.42;;;5.60;;
22314;SDS011;11325;55.686;37.566;2024-03-08T10:08:01;8.73;;;5.00;;
22314;SDS011;11325;55.686;37.566;2024-03-08T10:10:29;13.50;;;6.95;;
22314;SDS011;11325;55.686;37.566;2024-03-08T10:12:58;12.13;;;5.90;;
22314;SDS011;11325;55.686;37.566;2024-03-08T10:15:27;11.15;;;5.85;;
22314;SDS011;11325;55.686;37.566;2024-03-08T10:17:57;13.43;;;6.08;;
22314;SDS011;11325;55.686;37.566;2024-03-08T10:20:25;12.68;;;6.00;;
22314;SDS011;11325;55.686;37.566;2024-03-08T10:22:56;8.75;;;5.40;;
22314;SDS011;11325;55.686;37.566;2024-03-08T10:25:27;9.98;;;5.80;;
22314;SDS011;11325;55.686;37.566;2024-03-08T10:27:57;13.00;;;5.67;;
22314;SDS011;11325;55.686;37.566;2024-03-08T10:30:25;12.90;;;6.10;;
22314;SDS011;11325;55.686;37.566;2024-03-08T10:32:53;12.90;;;5.97;;
22314;SDS011;11325;55.686;37.566;2024-03-08T10:35:21;10.58;;;5.62;;
22314;SDS011;11325;55.686;37.566;2024-03-08T10:37:51;12.03;;;6.28;;
22314;SDS011;11325;55.686;37.566;2024-03-08T10:40:29;12.95;;;6.17;;
22314;SDS011;11325;55.686;37.566;2024-03-08T10:42:59;12.20;;;6.67;;
22314;SDS011;11325;55.686;37.566;2024-03-08T10:45:39;13.88;;;6.25;;
22314;SDS011;11325;55.686;37.566;2024-03-08T10:50:40;10.53;;;5.70;;
22314;SDS011;11325;55.686;37.566;2024-03-08T10:53:13;11.83;;;6.50;;
22314;SDS011;11325;55.686;37.566;2024-03-08T10:55:41;15.40;;;5.97;;
22314;SDS011;11325;55.686;37.566;2024-03-08T10:58:10;17.35;;;6.05;;
22314;SDS011;11325;55.686;37.566;2024-03-08T11:00:39;12.23;;;6.30;;
22314;SDS011;11325;55.686;37.566;2024-03-08T11:03:09;10.50;;;6.20;;
22314;SDS011;11325;55.686;37.566;2024-03-08T11:05:39;14.93;;;6.47;;
22314;SDS011;11325;55.686;37.566;2024-03-08T11:08:18;13.28;;;6.17;;
22314;SDS011;11325;55.686;37.566;2024-03-08T11:10:52;14.40;;;6.87;;
22314;SDS011;11325;55.686;37.566;2024-03-08T11:13:36;12.00;;;5.78;;
22314;SDS011;11325;55.686;37.566;2024-03-08T11:16:08;17.90;;;7.15;;
22314;SDS011;11325;55.686;37.566;2024-03-08T11:18:37;12.05;;;6.08;;
22314;SDS011;11325;55.686;37.566;2024-03-08T11:21:07;13.68;;;6.42;;
22314;SDS011;11325;55.686;37.566;2024-03-08T11:23:37;13.60;;;6.05;;
22314;SDS011;11325;55.686;37.566;2024-03-08T11:26:05;11.68;;;6.20;;
22314;SDS011;11325;55.686;37.566;2024-03-08T11:28:34;11.48;;;6.25;;
22314;SDS011;11325;55.686;37.566;2024-03-08T11:33:32;11.70;;;6.22;;
22314;SDS011;11325;55.686;37.566;2024-03-08T11:36:12;17.57;;;5.72;;
22314;SDS011;11325;55.686;37.566;2024-03-08T11:38:32;9.98;;;5.62;;
22314;SDS011;11325;55.686;37.566;2024-03-08T11:41:00;9.85;;;5.58;;
22314;SDS011;11325;55.686;37.566;2024-03-08T11:43:30;14.63;;;6.62;;
22314;SDS011;11325;55.686;37.566;2024-03-08T11:46:08;11.05;;;5.25;;
22314;SDS011;11325;55.686;37.566;2024-03-08T11:48:36;11.00;;;5.87;;
22314;SDS011;11325;55.686;37.566;2024-03-08T11:51:05;12.35;;;5.67;;
22314;SDS011;11325;55.686;37.566;2024-03-08T11:53:33;13.53;;;6.08;;
22314;SDS011;11325;55.686;37.566;2024-03-08T11:56:12;10.40;;;5.40;;
22314;SDS011;11325;55.686;37.566;2024-03-08T11:58:41;10.45;;;5.75;;
22314;SDS011;11325;55.686;37.566;2024-03-08T12:01:10;10.90;;;5.33;;
22314;SDS011;11325;55.686;37.566;2024-03-08T12:03:41;13.22;;;5.55;;
22314;SDS011;11325;55.686;37.566;2024-03-08T12:06:12;9.33;;;5.28;;
22314;SDS011;11325;55.686;37.566;2024-03-08T12:08:43;13.20;;;5.20;;
22314;SDS011;11325;55.686;37.566;2024-03-08T12:11:13;7.45;;;4.78;;
22314;SDS011;11325;55.686;37.566;2024-03-08T12:13:42;8.48;;;4.95;;
22314;SDS011;11325;55.686;37.566;2024-03-08T12:16:13;10.35;;;5.22;;
22314;SDS011;11325;55.686;37.566;2024-03-08T12:18:41;14.68;;;5.10;;
22314;SDS011;11325;55.686;37.566;2024-03-08T12:21:10;17.67;;;6.00;;
22314;SDS011;11325;55.686;37.566;2024-03-08T12:23:38;11.30;;;5.22;;
22314;SDS011;11325;55.686;37.566;2024-03-08T12:26:23;10.32;;;5.33;;
22314;SDS011;11325;55.686;37.566;2024-03-08T12:28:48;9.43;;;4.75;;
22314;SDS011;11325;55.686;37.566;2024-03-08T12:31:18;12.37;;;5.50;;
22314;SDS011;11325;55.686;37.566;2024-03-08T12:36:18;7.95;;;4.83;;
22314;SDS011;11325;55.686;37.566;2024-03-08T12:38:47;7.22;;;4.15;;
22314;SDS011;11325;55.686;37.566;2024-03-08T12:41:16;10.75;;;4.95;;
22314;SDS011;11325;55.686;37.566;2024-03-08T12:43:45;8.28;;;4.33;;
22314;SDS011;11325;55.686;37.566;2024-03-08T12:46:19;12.18;;;5.12;;
22314;SDS011;11325;55.686;37.566;2024-03-08T12:48:51;12.20;;;5.05;;
22314;SDS011;11325;55.686;37.566;2024-03-08T12:51:20;8.78;;;4.65;;
22314;SDS011;11325;55.686;37.566;2024-03-08T12:53:49;9.20;;;4.30;;
22314;SDS011;11325;55.686;37.566;2024-03-08T12:56:29;9.00;;;4.80;;
22314;SDS011;11325;55.686;37.566;2024-03-08T12:58:58;8.08;;;4.28;;
22314;SDS011;11325;55.686;37.566;2024-03-08T13:01:26;11.03;;;4.60;;
22314;SDS011;11325;55.686;37.566;2024-03-08T13:03:55;9.58;;;4.75;;
22314;SDS011;11325;55.686;37.566;2024-03-08T13:06:23;7.42;;;3.98;;
22314;SDS011;11325;55.686;37.566;2024-03-08T13:08:51;7.80;;;4.70;;
22314;SDS011;11325;55.686;37.566;2024-03-08T13:11:21;8.83;;;4.37;;
22314;SDS011;11325;55.686;37.566;2024-03-08T13:13:51;7.25;;;3.95;;
22314;SDS011;11325;55.686;37.566;2024-03-08T13:16:22;12.10;;;4.80;;
22314;SDS011;11325;55.686;37.566;2024-03-08T13:18:51;7.28;;;4.62;;
22314;SDS011;11325;55.686;37.566;2024-03-08T13:21:20;9.03;;;4.53;;
22314;SDS011;11325;55.686;37.566;2024-03-08T13:23:49;11.00;;;4.28;;
22314;SDS011;11325;55.686;37.566;2024-03-08T13:26:19;12.25;;;4.50;;
22314;SDS011;11325;55.686;37.566;2024-03-08T13:28:48;8.35;;;4.20;;
22314;SDS011;11325;55.686;37.566;2024-03-08T13:31:18;8.03;;;4.28;;
22314;SDS011;11325;55.686;37.566;2024-03-08T13:33:47;10.75;;;4.75;;
22314;SDS011;11325;55.686;37.566;2024-03-08T13:36:15;13.93;;;4.15;;
22314;SDS011;11325;55.686;37.566;2024-03-08T13:38:44;11.65;;;4.08;;
22314;SDS011;11325;55.686;37.566;2024-03-08T13:41:14;8.33;;;4.35;;
22314;SDS011;11325;55.686;37.566;2024-03-08T13:43:45;14.15;;;4.20;;
22314;SDS011;11325;55.686;37.566;2024-03-08T13:46:13;5.90;;;3.60;;
22314;SDS011;11325;55.686;37.566;2024-03-08T13:48:42;7.28;;;3.60;;
22314;SDS011;11325;55.686;37.566;2024-03-08T13:51:11;8.13;;;4.35;;
22314;SDS011;11325;55.686;37.566;2024-03-08T13:53:41;8.10;;;4.15;;
22314;SDS011;11325;55.686;37.566;2024-03-08T13:56:10;10.03;;;3.83;;
22314;SDS011;11325;55.686;37.566;2024-03-08T13:58:38;9.45;;;4.00;;
22314;SDS011;11325;55.686;37.566;2024-03-08T14:01:08;9.53;;;3.85;;
22314;SDS011;11325;55.686;37.566;2024-03-08T14:03:37;6.70;;;3.80;;
22314;SDS011;11325;55.686;37.566;2024-03-08T14:06:07;6.00;;;3.20;;
22314;SDS011;11325;55.686;37.566;2024-03-08T14:08:36;7.17;;;4.17;;
22314;SDS011;11325;55.686;37.566;2024-03-08T14:11:05;8.25;;;4.25;;
22314;SDS011;11325;55.686;37.566;2024-03-08T14:13:35;7.20;;;3.87;;
22314;SDS011;11325;55.686;37.566;2024-03-08T14:16:03;7.37;;;4.40;;
22314;SDS011;11325;55.686;37.566;2024-03-08T14:18:32;12.15;;;3.83;;
22314;SDS011;11325;55.686;37.566;2024-03-08T14:21:02;6.80;;;4.03;;
22314;SDS011;11325;55.686;37.566;2024-03-08T14:23:31;9.10;;;4.17;;
22314;SDS011;11325;55.686;37.566;2024-03-08T14:26:00;8.95;;;3.72;;
22314;SDS011;11325;55.686;37.566;2024-03-08T14:28:29;7.72;;;3.90;;
22314;SDS011;11325;55.686;37.566;2024-03-08T14:30:59;8.05;;;3.85;;
22314;SDS011;11325;55.686;37.566;2024-03-08T14:33:29;7.78;;;3.70;;
22314;SDS011;11325;55.686;37.566;2024-03-08T14:35:57;7.87;;;4.20;;
22314;SDS011;11325;55.686;37.566;2024-03-08T14:38:25;9.60;;;4.15;;
22314;SDS011;11325;55.686;37.566;2024-03-08T14:40:54;6.17;;;3.85;;
22314;SDS011;11325;55.686;37.566;2024-03-08T14:43:22;7.53;;;3.62;;
22314;SDS011;11325;55.686;37.566;2024-03-08T14:45:51;7.65;;;3.95;;
22314;SDS011;11325;55.686;37.566;2024-03-08T14:48:20;7.42;;;3.67;;
22314;SDS011;11325;55.686;37.566;2024-03-08T14:50:49;6.35;;;3.60;;
22314;SDS011;11325;55.686;37.566;2024-03-08T14:53:18;10.50;;;3.30;;